Time;durP1;ratioP1;P1;durP2;ratioP2;P2;SDS_P1;SDS_P2;PMS_P1;PMS_P2;Temp;Humidity;BMP_temperature;BMP_pressure;BME280_temperature;BME280_humidity;BME280_pressure;Samples;Min_cycle;Max_cycle;Signal;HPM_P1;HPM_P2
2023/04/14 00:01:37;;;;;;;;;;;6.80;99.90;;;;;;5030283;28;20017;-63
2023/04/14 00:04:03;;;;;;;;;;;6.70;99.90;;;;;;5027914;28;19920;-63
2023/04/14 00:06:29;;;;;;;;;;;6.80;99.90;;;;;;5029716;28;20086;-63
2023/04/14 00:08:56;;;;;;;;;;;6.60;99.90;;;;;;5014906;28;19913;-63
2023/04/14 00:11:22;;;;;;;;;;;6.50;99.90;;;;;;5026003;28;19936;-62
2023/04/14 00:13:47;;;;;;;;;;;6.60;99.90;;;;;;5027459;28;20345;-63
2023/04/14 00:16:13;;;;;;;;;;;6.60;99.90;;;;;;5037852;28;19913;-63
2023/04/14 00:18:39;;;;;;;;;;;6.50;99.90;;;;;;5029216;28;19917;-63
2023/04/14 00:21:04;;;;;;;;;;;6.40;99.90;;;;;;5015810;28;19914;-62
2023/04/14 00:23:30;;;;;;;;;;;6.40;99.90;;;;;;5026858;28;19913;-62
2023/04/14 00:25:55;;;;;;;;;;;6.30;99.90;;;;;;5022150;28;19913;-62
2023/04/14 00:28:21;;;;;;;;;;;6.20;99.90;;;;;;5029068;28;19917;-62
2023/04/14 00:30:46;;;;;;;;;;;6.20;99.90;;;;;;5028186;28;19913;-65
2023/04/14 00:33:12;;;;;;;;;;;6.30;99.90;;;;;;5021907;28;19914;-64
2023/04/14 00:35:38;;;;;;;;;;;6.30;99.90;;;;;;5034098;28;20413;-65
2023/04/14 00:38:03;;;;;;;;;;;6.50;99.90;;;;;;5030640;28;19917;-64
2023/04/14 00:40:29;;;;;;;;;;;6.60;99.90;;;;;;5024625;28;20338;-63
2023/04/14 00:42:55;;;;;;;;;;;6.70;99.90;;;;;;5031982;28;20292;-63
2023/04/14 00:45:21;;;;;;;;;;;6.60;99.90;;;;;;5024111;28;20392;-63
2023/04/14 00:47:49;;;;;;;;;;;6.60;99.90;;;;;;5028082;28;19920;-64
2023/04/14 00:50:18;;;;;;;;;;;6.70;99.90;;;;;;5037776;28;19913;-64
2023/04/14 00:52:45;;;;;;;;;;;6.80;99.90;;;;;;5027813;28;19913;-65
2023/04/14 00:55:12;;;;;;;;;;;7.00;99.90;;;;;;5021026;28;19924;-63
2023/04/14 00:57:38;;;;;;;;;;;7.10;99.90;;;;;;5030996;28;19991;-64
2023/04/14 01:00:04;;;;;;;;;;;7.20;99.90;;;;;;5018098;28;19965;-64
2023/04/14 01:02:30;;;;;;;;;;;7.10;99.90;;;;;;5023707;28;20309;-64
2023/04/14 01:04:56;;;;;;;;;;;7.30;99.90;;;;;;5022469;28;19964;-64
2023/04/14 01:07:22;;;;;;;;;;;7.30;99.90;;;;;;5028292;28;19912;-64
2023/04/14 01:09:49;;;;;;;;;;;7.40;99.90;;;;;;5033480;28;20005;-63
2023/04/14 01:12:30;;;;;;;;;;;7.60;99.90;;;;;;5032191;28;19913;-62
2023/04/14 01:15:10;;;;;;;;;;;7.80;99.90;;;;;;5029341;28;20337;-64
2023/04/14 01:17:38;;;;;;;;;;;7.90;99.90;;;;;;5026826;28;19956;-64
2023/04/14 01:20:04;;;;;;;;;;;8.00;99.90;;;;;;5033828;28;19913;-63
2023/04/14 01:22:30;;;;;;;;;;;8.10;99.90;;;;;;5033356;28;19921;-63
2023/04/14 01:24:59;;;;;;;;;;;8.00;99.90;;;;;;5036869;28;19917;-62
2023/04/14 01:27:43;;;;;;;;;;;8.00;99.90;;;;;;5037296;28;19959;-62
2023/04/14 01:30:20;;;;;;;;;;;8.10;99.90;;;;;;5029472;28;20528;-63
2023/04/14 01:32:48;;;;;;;;;;;8.30;99.90;;;;;;5038727;28;19959;-63
2023/04/14 01:35:19;;;;;;;;;;;8.50;99.90;;;;;;5026514;28;20333;-63
2023/04/14 01:37:53;;;;;;;;;;;8.60;99.90;;;;;;5035204;28;20337;-62
2023/04/14 01:40:19;;;;;;;;;;;8.70;99.90;;;;;;5018387;28;19917;-63
2023/04/14 01:42:47;;;;;;;;;;;8.70;99.90;;;;;;5038179;28;19921;-63
2023/04/14 01:45:18;;;;;;;;;;;8.60;99.90;;;;;;5032155;28;20099;-62
2023/04/14 01:47:44;;;;;;;;;;;8.60;99.90;;;;;;5026531;28;20399;-62
2023/04/14 01:50:11;;;;;;;;;;;8.60;99.90;;;;;;5030682;28;20369;-63
2023/04/14 01:52:37;;;;;;;;;;;8.60;99.90;;;;;;5032545;28;19913;-63
2023/04/14 01:55:05;;;;;;;;;;;8.50;99.90;;;;;;5019831;28;19913;-63
2023/04/14 01:57:35;;;;;;;;;;;8.50;99.90;;;;;;5039588;28;19913;-63
2023/04/14 02:00:01;;;;;;;;;;;8.40;99.90;;;;;;5031584;28;19917;-62
2023/04/14 02:02:27;;;;;;;;;;;8.30;99.90;;;;;;5028116;28;19921;-63
2023/04/14 02:04:56;;;;;;;;;;;8.20;99.90;;;;;;5025420;28;19921;-63
2023/04/14 02:07:22;;;;;;;;;;;8.10;99.90;;;;;;5031423;28;19920;-63
2023/04/14 02:09:48;;;;;;;;;;;8.00;99.90;;;;;;5028383;28;19917;-63
2023/04/14 02:12:15;;;;;;;;;;;8.00;99.90;;;;;;5020335;28;20404;-62
2023/04/14 02:14:41;;;;;;;;;;;8.00;99.90;;;;;;5035556;28;20379;-62
2023/04/14 02:17:09;;;;;;;;;;;8.00;99.90;;;;;;5035268;28;19917;-63
2023/04/14 02:19:35;;;;;;;;;;;7.90;99.90;;;;;;5044654;28;19913;-62
2023/04/14 02:22:01;;;;;;;;;;;8.00;99.90;;;;;;5030783;28;19928;-63
2023/04/14 02:24:27;;;;;;;;;;;7.90;99.90;;;;;;5041738;28;19913;-62
2023/04/14 02:26:57;;;;;;;;;;;7.80;99.90;;;;;;5026324;28;19920;-63
2023/04/14 02:29:24;;;;;;;;;;;7.60;99.90;;;;;;5024022;28;20000;-62
2023/04/14 02:31:53;;;;;;;;;;;7.60;99.90;;;;;;5036424;28;20368;-63
2023/04/14 02:34:22;;;;;;;;;;;7.60;99.90;;;;;;5032875;28;19913;-63
2023/04/14 02:36:51;;;;;;;;;;;7.60;99.90;;;;;;5035927;28;19917;-63
2023/04/14 02:39:24;;;;;;;;;;;7.60;99.90;;;;;;5029190;28;19939;-64
2023/04/14 02:41:57;;;;;;;;;;;7.70;99.90;;;;;;5041359;28;19928;-63
2023/04/14 02:44:27;;;;;;;;;;;7.80;99.90;;;;;;5030403;28;20407;-62
2023/04/14 02:46:56;;;;;;;;;;;7.70;99.90;;;;;;5039676;28;19982;-64
2023/04/14 02:49:22;;;;;;;;;;;7.70;99.90;;;;;;5041569;28;19999;-64
2023/04/14 02:51:49;;;;;;;;;;;7.50;99.90;;;;;;5038659;28;19913;-62
2023/04/14 02:54:17;;;;;;;;;;;7.40;99.90;;;;;;5033876;28;19920;-64
2023/04/14 02:56:42;;;;;;;;;;;7.40;99.90;;;;;;5038606;28;19987;-64
2023/04/14 02:59:08;;;;;;;;;;;7.40;99.90;;;;;;5038048;28;19917;-64
2023/04/14 03:01:34;;;;;;;;;;;7.30;99.90;;;;;;5038901;28;19928;-64
2023/04/14 03:04:00;;;;;;;;;;;7.30;99.90;;;;;;5032005;28;19913;-62
2023/04/14 03:06:26;;;;;;;;;;;7.30;99.90;;;;;;5039029;28;19917;-61
2023/04/14 03:08:53;;;;;;;;;;;7.30;99.90;;;;;;5037863;28;19917;-62
2023/04/14 03:11:20;;;;;;;;;;;7.20;99.90;;;;;;5036852;28;20393;-62
2023/04/14 03:13:45;;;;;;;;;;;7.10;99.90;;;;;;5030913;28;19960;-63
2023/04/14 03:16:12;;;;;;;;;;;7.10;99.90;;;;;;5038954;28;19913;-63
2023/04/14 03:18:38;;;;;;;;;;;7.20;99.90;;;;;;5034426;28;19919;-63
2023/04/14 03:21:04;;;;;;;;;;;7.30;99.90;;;;;;5030075;28;20012;-62
2023/04/14 03:23:30;;;;;;;;;;;7.50;99.90;;;;;;5038915;28;19917;-63
2023/04/14 03:25:56;;;;;;;;;;;7.50;99.90;;;;;;5035448;28;19975;-62
2023/04/14 03:28:27;;;;;;;;;;;7.50;99.90;;;;;;5038329;28;20276;-62
2023/04/14 03:30:53;;;;;;;;;;;7.50;99.90;;;;;;5027150;28;20365;-63
2023/04/14 03:33:22;;;;;;;;;;;7.60;99.90;;;;;;5031344;28;19920;-62
2023/04/14 03:35:49;;;;;;;;;;;7.60;99.90;;;;;;5024579;28;19995;-63
2023/04/14 03:38:15;;;;;;;;;;;7.70;99.90;;;;;;5028454;28;19920;-63
2023/04/14 03:40:43;;;;;;;;;;;7.80;99.90;;;;;;5028783;28;19913;-62
2023/04/14 03:43:11;;;;;;;;;;;8.00;99.90;;;;;;5043622;28;20438;-63
2023/04/14 03:45:37;;;;;;;;;;;8.10;99.90;;;;;;5036782;28;19925;-61
2023/04/14 03:48:04;;;;;;;;;;;8.20;99.90;;;;;;5033695;28;19917;-63
2023/04/14 03:50:31;;;;;;;;;;;8.20;99.90;;;;;;5030271;28;19920;-63
2023/04/14 03:52:59;;;;;;;;;;;8.20;99.90;;;;;;5031446;28;19967;-63
2023/04/14 03:55:26;;;;;;;;;;;8.20;99.90;;;;;;5029930;28;19964;-63
2023/04/14 03:57:54;;;;;;;;;;;8.30;99.90;;;;;;5037555;28;19917;-63
2023/04/14 04:00:21;;;;;;;;;;;8.30;99.90;;;;;;5039041;28;19919;-63
2023/04/14 04:02:47;;;;;;;;;;;8.30;99.90;;;;;;5031972;28;19928;-63
2023/04/14 04:05:13;;;;;;;;;;;8.30;99.90;;;;;;5025348;28;20414;-63
2023/04/14 04:07:39;;;;;;;;;;;8.30;99.90;;;;;;5016750;28;20003;-64
2023/04/14 04:10:05;;;;;;;;;;;8.40;99.90;;;;;;5016620;28;20011;-63
2023/04/14 04:12:31;;;;;;;;;;;8.40;99.90;;;;;;5040213;28;19920;-63
2023/04/14 04:14:57;;;;;;;;;;;8.50;99.90;;;;;;5019921;28;19913;-63
2023/04/14 04:17:23;;;;;;;;;;;8.60;99.90;;;;;;5015527;28;19913;-63
2023/04/14 04:19:49;;;;;;;;;;;8.60;99.90;;;;;;5008818;28;19913;-63
2023/04/14 04:22:16;;;;;;;;;;;8.60;99.90;;;;;;5014976;28;19921;-64
2023/04/14 04:24:43;;;;;;;;;;;8.50;99.90;;;;;;5015404;28;20395;-63
2023/04/14 04:27:09;;;;;;;;;;;8.50;99.90;;;;;;5017196;28;20007;-62
2023/04/14 04:29:36;;;;;;;;;;;8.50;99.90;;;;;;5019406;28;20035;-64
2023/04/14 04:32:01;;;;;;;;;;;8.60;99.90;;;;;;5022921;28;19913;-63
2023/04/14 04:34:28;;;;;;;;;;;8.60;99.90;;;;;;5018369;28;19920;-63
2023/04/14 04:36:54;;;;;;;;;;;8.60;99.90;;;;;;5018065;28;19937;-63
2023/04/14 04:39:19;;;;;;;;;;;8.60;99.90;;;;;;5015049;28;19913;-63
2023/04/14 04:41:45;;;;;;;;;;;8.70;99.90;;;;;;5020248;28;19993;-64
2023/04/14 04:44:11;;;;;;;;;;;8.70;99.90;;;;;;5013451;28;20351;-63
2023/04/14 04:46:52;;;;;;;;;;;8.70;99.90;;;;;;5018224;28;19936;-63
2023/04/14 04:49:18;;;;;;;;;;;8.70;99.90;;;;;;5013194;28;19913;-63
2023/04/14 04:51:44;;;;;;;;;;;8.70;99.90;;;;;;5018998;28;19948;-63
2023/04/14 04:54:10;;;;;;;;;;;8.80;99.90;;;;;;5018057;28;19929;-63
2023/04/14 04:59:39;;;;;;;;;;;8.90;99.90;;;;;;5050289;22;19991;-63
2023/04/14 05:02:06;;;;;;;;;;;8.90;99.90;;;;;;5049557;28;20364;-63
2023/04/14 05:04:32;;;;;;;;;;;9.00;99.90;;;;;;5047321;28;19920;-62
2023/04/14 05:06:57;;;;;;;;;;;9.00;99.90;;;;;;5036440;28;19959;-64
2023/04/14 05:09:23;;;;;;;;;;;8.90;99.90;;;;;;5040734;28;19913;-63
2023/04/14 05:11:49;;;;;;;;;;;8.90;99.90;;;;;;5042350;28;19923;-64
2023/04/14 05:14:15;;;;;;;;;;;9.00;99.90;;;;;;5035070;28;20333;-64
2023/04/14 05:16:40;;;;;;;;;;;9.00;99.90;;;;;;5042673;28;19913;-63
2023/04/14 05:19:06;;;;;;;;;;;9.00;99.90;;;;;;5034771;28;19917;-63
2023/04/14 05:21:31;;;;;;;;;;;9.00;99.90;;;;;;5048519;28;19932;-64
2023/04/14 05:23:57;;;;;;;;;;;9.10;99.90;;;;;;5040132;28;19920;-63
2023/04/14 05:26:22;;;;;;;;;;;9.10;99.90;;;;;;5044030;28;20336;-63
2023/04/14 05:28:48;;;;;;;;;;;9.20;99.90;;;;;;5040703;28;19960;-63
2023/04/14 05:31:14;;;;;;;;;;;9.10;99.90;;;;;;5042216;28;19988;-63
2023/04/14 05:33:39;;;;;;;;;;;9.10;99.90;;;;;;5047103;28;19969;-64
2023/04/14 05:36:05;;;;;;;;;;;9.20;99.90;;;;;;5036957;28;19913;-63
2023/04/14 05:38:31;;;;;;;;;;;9.20;99.90;;;;;;5038528;28;19988;-63
2023/04/14 05:40:56;;;;;;;;;;;9.30;99.90;;;;;;5034638;28;19913;-64
2023/04/14 05:43:22;;;;;;;;;;;9.30;99.90;;;;;;5043046;28;19927;-63
2023/04/14 05:45:48;;;;;;;;;;;9.30;99.90;;;;;;5055310;28;19912;-63
2023/04/14 05:48:15;;;;;;;;;;;9.30;99.90;;;;;;5054256;28;19999;-62
2023/04/14 05:50:41;;;;;;;;;;;9.30;99.90;;;;;;5050997;28;19999;-62
2023/04/14 05:53:07;;;;;;;;;;;9.40;99.90;;;;;;5050572;28;19986;-63
2023/04/14 05:55:33;;;;;;;;;;;9.40;99.90;;;;;;5046369;28;19920;-63
2023/04/14 05:57:59;;;;;;;;;;;9.50;99.90;;;;;;5045315;28;19917;-64
2023/04/14 06:00:24;;;;;;;;;;;9.40;99.90;;;;;;5056888;28;19920;-64
2023/04/14 06:02:50;;;;;;;;;;;9.40;99.90;;;;;;5046653;28;20288;-64
2023/04/14 06:05:16;;;;;;;;;;;9.50;99.90;;;;;;5049780;28;19912;-62
2023/04/14 06:07:42;;;;;;;;;;;9.50;99.90;;;;;;5055777;28;20431;-64
2023/04/14 06:10:09;;;;;;;;;;;9.50;99.90;;;;;;5050437;28;19927;-64
2023/04/14 06:12:36;;;;;;;;;;;9.50;99.90;;;;;;5051535;28;19917;-63
2023/04/14 06:15:02;;;;;;;;;;;9.50;99.90;;;;;;5046461;28;20015;-63
2023/04/14 06:17:28;;;;;;;;;;;9.60;99.90;;;;;;5054358;28;20368;-62
2023/04/14 06:19:54;;;;;;;;;;;9.60;99.90;;;;;;5047417;28;19913;-66
2023/04/14 06:22:20;;;;;;;;;;;9.60;99.90;;;;;;5049428;28;19928;-63
2023/04/14 06:24:45;;;;;;;;;;;9.60;99.90;;;;;;5054643;28;19913;-63
2023/04/14 06:27:11;;;;;;;;;;;9.50;99.90;;;;;;5051355;28;19920;-64
2023/04/14 06:29:36;;;;;;;;;;;9.50;99.90;;;;;;5043407;28;20035;-64
2023/04/14 06:32:02;;;;;;;;;;;9.60;99.90;;;;;;5048591;28;19913;-63
2023/04/14 06:34:28;;;;;;;;;;;9.70;99.90;;;;;;5053237;28;19912;-64
2023/04/14 06:36:55;;;;;;;;;;;9.80;99.90;;;;;;5046493;28;20004;-64
2023/04/14 06:39:21;;;;;;;;;;;9.80;99.90;;;;;;5050891;28;19913;-64
2023/04/14 06:41:47;;;;;;;;;;;9.90;99.90;;;;;;5040753;28;20023;-63
2023/04/14 06:44:12;;;;;;;;;;;9.90;99.90;;;;;;5071278;28;19994;-63
2023/04/14 06:46:38;;;;;;;;;;;10.00;99.90;;;;;;5053686;28;19912;-63
2023/04/14 06:49:04;;;;;;;;;;;9.90;99.90;;;;;;5056712;28;19917;-63
2023/04/14 06:51:32;;;;;;;;;;;10.00;99.90;;;;;;5060808;28;20007;-63
2023/04/14 06:53:58;;;;;;;;;;;10.00;99.90;;;;;;5056069;28;19912;-62
2023/04/14 06:56:24;;;;;;;;;;;10.00;99.90;;;;;;5056376;28;20320;-62
2023/04/14 06:58:50;;;;;;;;;;;10.00;99.90;;;;;;5043371;28;19913;-62
2023/04/14 07:01:15;;;;;;;;;;;10.00;99.90;;;;;;5055954;28;19923;-67
2023/04/14 07:03:41;;;;;;;;;;;10.00;99.90;;;;;;5052409;28;20410;-64
2023/04/14 07:06:10;;;;;;;;;;;10.00;99.90;;;;;;5051887;28;19920;-64
2023/04/14 07:08:36;;;;;;;;;;;10.00;99.90;;;;;;5064846;28;19919;-63
2023/04/14 07:11:02;;;;;;;;;;;10.00;99.90;;;;;;5056976;28;19920;-64
2023/04/14 07:13:28;;;;;;;;;;;10.00;99.90;;;;;;5054122;28;19913;-63
2023/04/14 07:15:54;;;;;;;;;;;10.00;99.90;;;;;;5055194;28;20004;-64
2023/04/14 07:18:20;;;;;;;;;;;10.00;99.90;;;;;;5046012;28;19923;-64
2023/04/14 07:20:47;;;;;;;;;;;10.10;99.90;;;;;;5046823;28;19912;-64
2023/04/14 07:23:13;;;;;;;;;;;10.10;99.90;;;;;;5056131;28;20015;-63
2023/04/14 07:25:39;;;;;;;;;;;10.20;99.90;;;;;;5051875;28;20019;-63
2023/04/14 07:28:05;;;;;;;;;;;10.10;99.90;;;;;;5055559;28;19967;-63
2023/04/14 07:30:31;;;;;;;;;;;10.10;99.90;;;;;;5052381;28;19920;-63
2023/04/14 07:32:57;;;;;;;;;;;10.10;99.90;;;;;;5052699;28;19917;-64
2023/04/14 07:35:25;;;;;;;;;;;10.10;99.90;;;;;;5045342;28;20361;-63
2023/04/14 07:37:51;;;;;;;;;;;10.00;99.90;;;;;;5039429;28;19979;-64
2023/04/14 07:40:17;;;;;;;;;;;10.10;99.90;;;;;;5044851;28;19936;-63
2023/04/14 07:42:43;;;;;;;;;;;10.20;99.90;;;;;;5049895;28;19924;-62
2023/04/14 07:45:09;;;;;;;;;;;10.10;99.90;;;;;;5051806;28;20348;-64
2023/04/14 07:47:34;;;;;;;;;;;10.30;99.90;;;;;;5053608;28;19917;-64
2023/04/14 07:50:00;;;;;;;;;;;10.30;99.90;;;;;;5052176;28;20665;-62
2023/04/14 07:52:26;;;;;;;;;;;10.30;99.90;;;;;;5048936;28;19919;-61
2023/04/14 07:54:52;;;;;;;;;;;10.30;99.90;;;;;;5055414;28;20325;-63
2023/04/14 07:57:18;;;;;;;;;;;10.30;99.90;;;;;;5051369;28;19921;-61
2023/04/14 07:59:43;;;;;;;;;;;10.30;99.90;;;;;;5057368;28;20396;-62
2023/04/14 08:02:09;;;;;;;;;;;10.40;99.90;;;;;;5040302;28;19921;-62
2023/04/14 08:04:35;;;;;;;;;;;10.50;99.90;;;;;;5035235;28;19967;-61
2023/04/14 08:07:01;;;;;;;;;;;10.50;99.90;;;;;;5038268;28;20004;-63
2023/04/14 08:09:27;;;;;;;;;;;10.40;99.90;;;;;;5041438;28;19996;-63
2023/04/14 08:11:52;;;;;;;;;;;10.50;99.90;;;;;;5045041;28;20434;-62
2023/04/14 08:14:18;;;;;;;;;;;10.50;99.90;;;;;;5040247;28;20322;-63
2023/04/14 08:16:43;;;;;;;;;;;10.50;99.90;;;;;;5034994;28;19917;-61
2023/04/14 08:19:09;;;;;;;;;;;10.60;99.90;;;;;;5038971;28;19917;-62
2023/04/14 08:21:35;;;;;;;;;;;10.70;99.90;;;;;;5036788;28;19921;-62
2023/04/14 08:24:01;;;;;;;;;;;10.80;99.90;;;;;;5047394;28;20014;-62
2023/04/14 08:26:27;;;;;;;;;;;10.70;99.90;;;;;;5048463;28;20013;-63
2023/04/14 08:28:52;;;;;;;;;;;10.60;99.90;;;;;;5044178;28;19943;-62
2023/04/14 08:31:21;;;;;;;;;;;10.60;99.90;;;;;;5045325;28;19956;-62
2023/04/14 08:33:47;;;;;;;;;;;10.60;99.90;;;;;;5049436;28;19923;-62
2023/04/14 08:36:12;;;;;;;;;;;10.60;99.90;;;;;;5043463;28;19917;-62
2023/04/14 08:38:38;;;;;;;;;;;10.50;99.90;;;;;;5041090;28;20347;-63
2023/04/14 08:41:06;;;;;;;;;;;10.40;99.90;;;;;;5046838;28;19916;-62
2023/04/14 08:43:31;;;;;;;;;;;10.40;99.90;;;;;;5045896;28;19936;-62
2023/04/14 08:45:58;;;;;;;;;;;10.30;99.90;;;;;;5041162;28;19920;-62
2023/04/14 08:48:28;;;;;;;;;;;10.30;99.90;;;;;;5046493;28;19928;-62
2023/04/14 08:50:58;;;;;;;;;;;10.30;99.90;;;;;;5053997;28;19921;-62
2023/04/14 08:53:24;;;;;;;;;;;10.30;99.90;;;;;;5044602;28;19924;-63
2023/04/14 08:55:50;;;;;;;;;;;10.30;99.90;;;;;;5049553;28;19970;-64
2023/04/14 08:58:16;;;;;;;;;;;10.10;99.90;;;;;;5054456;28;19939;-61
2023/04/14 09:00:42;;;;;;;;;;;9.90;99.90;;;;;;5056515;28;19928;-63
2023/04/14 09:03:10;;;;;;;;;;;9.90;99.90;;;;;;5053377;28;19978;-63
2023/04/14 09:05:36;;;;;;;;;;;10.00;99.90;;;;;;5051566;28;20333;-63
2023/04/14 09:08:02;;;;;;;;;;;10.00;99.90;;;;;;5054467;28;19917;-63
2023/04/14 09:10:29;;;;;;;;;;;10.00;99.90;;;;;;5055506;28;20022;-63
2023/04/14 09:12:55;;;;;;;;;;;10.00;99.90;;;;;;5055583;28;20280;-63
2023/04/14 09:15:21;;;;;;;;;;;9.90;99.90;;;;;;5052414;28;19919;-64
2023/04/14 09:17:47;;;;;;;;;;;9.90;99.90;;;;;;5042799;28;19913;-63
2023/04/14 09:20:13;;;;;;;;;;;9.90;99.90;;;;;;5044477;28;19917;-64
2023/04/14 09:22:38;;;;;;;;;;;9.90;99.90;;;;;;5044216;28;19925;-64
2023/04/14 09:25:04;;;;;;;;;;;9.90;99.90;;;;;;5039959;28;20348;-62
2023/04/14 09:27:30;;;;;;;;;;;9.80;99.90;;;;;;5043703;28;19917;-63
2023/04/14 09:29:57;;;;;;;;;;;9.70;99.90;;;;;;5047727;28;20071;-64
2023/04/14 09:32:22;;;;;;;;;;;9.80;99.90;;;;;;5053564;28;19921;-62
2023/04/14 09:34:52;;;;;;;;;;;9.70;99.90;;;;;;5051419;28;19982;-63
2023/04/14 09:37:19;;;;;;;;;;;9.60;99.90;;;;;;5038765;28;19921;-62
2023/04/14 09:39:49;;;;;;;;;;;9.50;99.90;;;;;;5039573;28;19920;-63
2023/04/14 09:42:16;;;;;;;;;;;9.50;99.90;;;;;;5039111;28;19928;-62
2023/04/14 09:44:54;;;;;;;;;;;9.50;99.90;;;;;;5041070;28;19913;-63
2023/04/14 09:47:21;;;;;;;;;;;9.50;99.90;;;;;;5046063;28;20288;-63
2023/04/14 09:49:57;;;;;;;;;;;9.40;99.90;;;;;;5033166;28;19948;-62
2023/04/14 09:52:34;;;;;;;;;;;9.40;99.90;;;;;;5040270;28;20381;-64
2023/04/14 09:55:00;;;;;;;;;;;9.30;99.90;;;;;;5034133;28;20396;-62
2023/04/14 09:57:27;;;;;;;;;;;9.40;99.90;;;;;;5043077;28;19921;-62
2023/04/14 09:59:53;;;;;;;;;;;9.40;99.90;;;;;;5040075;28;20339;-62
2023/04/14 10:02:18;;;;;;;;;;;9.50;99.90;;;;;;5041228;28;19924;-63
2023/04/14 10:04:44;;;;;;;;;;;9.50;99.90;;;;;;5036614;28;20317;-62
2023/04/14 10:07:11;;;;;;;;;;;9.50;99.90;;;;;;5042399;28;19966;-64
2023/04/14 10:09:37;;;;;;;;;;;9.50;99.90;;;;;;5037210;28;19962;-64
2023/04/14 10:12:09;;;;;;;;;;;9.30;99.90;;;;;;5031686;28;19921;-64
2023/04/14 10:14:35;;;;;;;;;;;9.30;99.90;;;;;;5023754;28;19917;-62
2023/04/14 10:17:01;;;;;;;;;;;9.30;99.90;;;;;;5034897;28;20497;-64
2023/04/14 10:19:27;;;;;;;;;;;9.30;99.90;;;;;;5046887;28;20002;-63
2023/04/14 10:21:53;;;;;;;;;;;9.20;99.90;;;;;;5039366;28;22020;-63
2023/04/14 10:24:21;;;;;;;;;;;9.30;99.90;;;;;;5046986;28;20724;-63
2023/04/14 10:26:48;;;;;;;;;;;9.20;99.90;;;;;;5042247;28;19921;-64
2023/04/14 10:29:14;;;;;;;;;;;9.20;99.90;;;;;;5041056;28;19913;-65
2023/04/14 10:31:47;;;;;;;;;;;9.30;99.90;;;;;;5036995;28;20053;-65
2023/04/14 10:34:13;;;;;;;;;;;9.30;99.90;;;;;;5045634;28;20448;-64
2023/04/14 10:36:39;;;;;;;;;;;9.40;99.90;;;;;;5040750;28;19921;-64
2023/04/14 10:39:05;;;;;;;;;;;9.20;99.90;;;;;;5042460;28;19967;-65
2023/04/14 10:41:42;;;;;;;;;;;9.30;99.90;;;;;;5036664;28;19920;-65
2023/04/14 10:44:21;;;;;;;;;;;9.30;99.90;;;;;;5036456;28;19967;-65
2023/04/14 10:46:47;;;;;;;;;;;9.30;99.90;;;;;;5040714;28;20391;-65
2023/04/14 10:49:13;;;;;;;;;;;9.30;99.90;;;;;;5038692;28;19913;-65
2023/04/14 10:51:39;;;;;;;;;;;9.30;99.90;;;;;;5031607;28;19921;-65
2023/04/14 10:54:14;;;;;;;;;;;9.20;99.90;;;;;;5041658;28;19971;-65
2023/04/14 10:56:40;;;;;;;;;;;9.20;99.90;;;;;;5040207;28;19937;-65
2023/04/14 10:59:08;;;;;;;;;;;9.30;99.90;;;;;;5037254;28;19952;-65
2023/04/14 11:01:35;;;;;;;;;;;9.50;99.90;;;;;;5038282;28;19913;-65
2023/04/14 11:04:17;;;;;;;;;;;9.60;99.90;;;;;;5034854;28;20209;-63
2023/04/14 11:06:49;;;;;;;;;;;9.40;99.90;;;;;;5041886;28;19920;-64
2023/04/14 11:09:31;;;;;;;;;;;9.40;99.90;;;;;;5039897;28;19919;-63
2023/04/14 11:12:01;;;;;;;;;;;9.50;99.90;;;;;;5030940;28;20346;-65
2023/04/14 11:14:29;;;;;;;;;;;9.70;99.90;;;;;;5040991;28;19921;-66
2023/04/14 11:16:58;;;;;;;;;;;9.80;99.90;;;;;;5040204;28;20007;-66
2023/04/14 11:19:24;;;;;;;;;;;9.90;99.90;;;;;;5041312;28;20004;-65
2023/04/14 11:21:52;;;;;;;;;;;10.10;99.90;;;;;;5035093;28;20019;-65
2023/04/14 11:24:21;;;;;;;;;;;10.40;99.90;;;;;;5038301;28;19970;-65
2023/04/14 11:26:47;;;;;;;;;;;10.60;99.90;;;;;;5039528;28;20483;-65
2023/04/14 11:29:13;;;;;;;;;;;10.90;99.90;;;;;;5035315;28;20000;-64
2023/04/14 11:31:39;;;;;;;;;;;11.30;99.90;;;;;;5033853;28;19921;-65
2023/04/14 11:34:07;;;;;;;;;;;11.50;99.90;;;;;;5039607;28;20501;-66
2023/04/14 11:36:38;;;;;;;;;;;11.70;99.90;;;;;;5036349;28;19917;-64
2023/04/14 11:39:06;;;;;;;;;;;11.90;99.90;;;;;;5040426;28;20855;-65
2023/04/14 11:41:31;;;;;;;;;;;12.20;99.90;;;;;;5039134;28;19999;-66
2023/04/14 11:43:57;;;;;;;;;;;12.40;99.90;;;;;;5039398;28;20000;-64
2023/04/14 11:46:23;;;;;;;;;;;12.20;99.90;;;;;;5038692;28;19913;-64
2023/04/14 11:48:56;;;;;;;;;;;12.00;99.90;;;;;;5036471;28;19962;-65
2023/04/14 11:51:32;;;;;;;;;;;12.00;99.90;;;;;;5034895;28;19968;-66
2023/04/14 11:54:00;;;;;;;;;;;11.90;99.90;;;;;;5037825;28;19958;-65
2023/04/14 11:56:27;;;;;;;;;;;11.70;99.90;;;;;;5038399;28;19913;-64
2023/04/14 11:59:02;;;;;;;;;;;11.30;99.90;;;;;;5035813;28;19970;-64
2023/04/14 12:01:31;;;;;;;;;;;11.30;99.90;;;;;;5048466;28;19920;-65
2023/04/14 12:03:57;;;;;;;;;;;11.50;99.90;;;;;;5042146;28;20093;-65
2023/04/14 12:06:25;;;;;;;;;;;11.60;99.90;;;;;;5041125;28;19990;-64
2023/04/14 12:08:55;;;;;;;;;;;11.50;99.90;;;;;;5036132;28;19967;-64
2023/04/14 12:11:21;;;;;;;;;;;11.60;99.90;;;;;;5044381;28;20369;-65
2023/04/14 12:13:48;;;;;;;;;;;11.70;99.90;;;;;;5041039;28;19913;-65
2023/04/14 12:16:15;;;;;;;;;;;11.90;99.90;;;;;;5039470;28;19912;-63
2023/04/14 12:18:41;;;;;;;;;;;11.90;99.90;;;;;;5042797;28;19924;-64
2023/04/14 12:21:07;;;;;;;;;;;11.90;99.90;;;;;;5043936;28;19987;-65
2023/04/14 12:23:43;;;;;;;;;;;12.10;99.90;;;;;;5041408;28;20016;-63
2023/04/14 12:26:13;;;;;;;;;;;12.10;99.90;;;;;;5039544;28;19920;-63
2023/04/14 12:28:40;;;;;;;;;;;12.10;99.90;;;;;;5042956;28;20003;-64
2023/04/14 12:31:06;;;;;;;;;;;12.40;99.90;;;;;;5043229;28;19921;-64
2023/04/14 12:33:32;;;;;;;;;;;12.80;99.90;;;;;;5043702;28;19912;-64
2023/04/14 12:36:03;;;;;;;;;;;13.10;99.90;;;;;;5035290;28;19961;-64
2023/04/14 12:38:29;;;;;;;;;;;13.10;99.90;;;;;;5052464;28;20320;-65
2023/04/14 12:40:55;;;;;;;;;;;12.60;99.90;;;;;;5043676;28;19919;-64
2023/04/14 12:43:28;;;;;;;;;;;12.20;99.90;;;;;;5048258;28;20011;-65
2023/04/14 12:45:54;;;;;;;;;;;11.90;99.90;;;;;;5041274;28;19916;-63
2023/04/14 12:48:21;;;;;;;;;;;11.80;99.90;;;;;;5040634;28;19920;-63
2023/04/14 12:50:46;;;;;;;;;;;11.60;99.90;;;;;;5045060;28;19927;-64
2023/04/14 12:53:28;;;;;;;;;;;11.10;99.90;;;;;;5045970;28;20279;-64
2023/04/14 12:56:05;;;;;;;;;;;10.80;99.90;;;;;;5042956;28;20269;-64
2023/04/14 12:58:32;;;;;;;;;;;10.50;99.90;;;;;;5040936;28;19941;-63
2023/04/14 13:00:57;;;;;;;;;;;10.50;99.90;;;;;;5045559;28;20352;-63
2023/04/14 13:03:23;;;;;;;;;;;10.30;99.90;;;;;;5043006;28;19921;-63
2023/04/14 13:05:50;;;;;;;;;;;10.20;99.90;;;;;;5046196;28;19913;-63
2023/04/14 13:08:43;;;;;;;;;;;10.20;99.90;;;;;;5045234;28;20376;-64
2023/04/14 13:11:29;;;;;;;;;;;9.90;99.90;;;;;;5037572;28;20013;-68
2023/04/14 13:13:55;;;;;;;;;;;9.70;99.90;;;;;;5034970;28;19914;-67
2023/04/14 13:16:21;;;;;;;;;;;9.50;99.90;;;;;;5037246;28;19957;-68
2023/04/14 13:18:47;;;;;;;;;;;9.30;99.90;;;;;;5034454;28;19951;-68
2023/04/14 13:21:14;;;;;;;;;;;9.30;99.90;;;;;;5041201;28;19913;-66
2023/04/14 13:23:40;;;;;;;;;;;9.40;99.90;;;;;;5035971;28;19935;-66
2023/04/14 13:26:05;;;;;;;;;;;9.80;99.90;;;;;;5038419;28;20003;-66
2023/04/14 13:28:31;;;;;;;;;;;10.20;99.90;;;;;;5042438;28;20008;-67
2023/04/14 13:30:56;;;;;;;;;;;10.60;99.90;;;;;;5041746;28;20353;-66
2023/04/14 13:33:23;;;;;;;;;;;10.70;99.90;;;;;;5039449;28;20289;-66
2023/04/14 13:35:49;;;;;;;;;;;10.70;99.90;;;;;;5035496;28;19935;-66
2023/04/14 13:38:15;;;;;;;;;;;10.80;99.90;;;;;;5044190;28;19912;-65
2023/04/14 13:40:41;;;;;;;;;;;10.70;99.90;;;;;;5043723;28;19920;-66
2023/04/14 13:43:07;;;;;;;;;;;10.80;99.90;;;;;;5038591;28;19921;-66
2023/04/14 13:45:34;;;;;;;;;;;11.30;99.90;;;;;;5039085;28;20018;-65
2023/04/14 13:48:00;;;;;;;;;;;11.70;99.90;;;;;;5037494;28;20285;-66
2023/04/14 13:50:26;;;;;;;;;;;12.00;99.90;;;;;;5046574;28;19920;-66
2023/04/14 13:52:52;;;;;;;;;;;11.50;99.90;;;;;;5036282;28;19914;-65
2023/04/14 13:55:18;;;;;;;;;;;11.10;99.90;;;;;;5042220;28;19917;-66
2023/04/14 13:57:44;;;;;;;;;;;10.70;99.90;;;;;;5038793;28;19982;-65
2023/04/14 14:00:10;;;;;;;;;;;10.50;99.90;;;;;;5036567;28;19932;-65
2023/04/14 14:02:38;;;;;;;;;;;10.60;99.90;;;;;;5041268;28;19924;-66
2023/04/14 14:05:05;;;;;;;;;;;10.80;99.90;;;;;;5037678;28;19924;-66
2023/04/14 14:07:31;;;;;;;;;;;10.60;99.90;;;;;;5039474;28;20399;-65
2023/04/14 14:09:56;;;;;;;;;;;10.80;99.90;;;;;;5038886;28;20307;-65
2023/04/14 14:12:23;;;;;;;;;;;10.50;99.90;;;;;;5039973;28;19919;-64
2023/04/14 14:14:48;;;;;;;;;;;10.40;99.90;;;;;;5035549;28;19917;-65
2023/04/14 14:17:14;;;;;;;;;;;10.20;99.90;;;;;;5038548;28;19920;-65
2023/04/14 14:19:40;;;;;;;;;;;10.20;99.90;;;;;;5037945;28;19917;-65
2023/04/14 14:22:06;;;;;;;;;;;10.40;99.90;;;;;;5041589;28;20046;-65
2023/04/14 14:24:32;;;;;;;;;;;10.60;99.90;;;;;;5038825;28;20269;-65
2023/04/14 14:26:57;;;;;;;;;;;10.80;99.90;;;;;;5040389;28;19971;-65
2023/04/14 14:29:23;;;;;;;;;;;11.00;99.90;;;;;;5036136;28;19913;-63